Weather at Dresser Hill Airport

Public forecast

Using degrees Fahrenheit for public forecast. Weather courtesy of forecast.io.

Closest aviation weather report (METAR) to Dresser Hill Airport

Closest report is Worcester Regional Airport, 10.8 nm (20.0 km) NNE. Retrieved 2020/09/20 03:54 UTC (12 minutes ago):

KORH 200354Z AUTO 01008KT 10SM CLR 08/M03 A3040 RMK AO2 SLP298 T00831033

Closest aviation forecast (TAF) to Dresser Hill Airport

Closest forecast is Worcester Regional Airport, 10.8 nm (20.0 km) NNE. Retrieved 2020-09-20 00:30 UTC (4 hours ago):

TAF KORH 192326Z 2000/2024 33005KT P6SM SKC FM200600 02007KT P6SM SKC FM201400 03012KT P6SM SKC FM202300 03005KT P6SM SKC